sensor_id;sensor_type;location;lat;lon;timestamp;P1;durP1;ratioP1;P2;durP2;ratioP2
70385;SDS011;63206;55.650;37.500;2023-02-28T00:00:12;14.38;;;4.72;;
70385;SDS011;63206;55.650;37.500;2023-02-28T00:02:40;14.07;;;4.88;;
70385;SDS011;63206;55.650;37.500;2023-02-28T00:05:06;14.95;;;5.07;;
70385;SDS011;63206;55.650;37.500;2023-02-28T00:07:32;14.73;;;4.55;;
70385;SDS011;63206;55.650;37.500;2023-02-28T00:09:58;14.60;;;4.97;;
70385;SDS011;63206;55.650;37.500;2023-02-28T00:12:24;11.75;;;4.13;;
70385;SDS011;63206;55.650;37.500;2023-02-28T00:14:53;14.88;;;4.68;;
70385;SDS011;63206;55.650;37.500;2023-02-28T00:17:19;14.07;;;4.32;;
70385;SDS011;63206;55.650;37.500;2023-02-28T00:19:50;13.07;;;4.38;;
70385;SDS011;63206;55.650;37.500;2023-02-28T00:22:17;16.35;;;5.40;;
70385;SDS011;63206;55.650;37.500;2023-02-28T00:24:46;15.25;;;4.88;;
70385;SDS011;63206;55.650;37.500;2023-02-28T00:27:13;15.85;;;5.55;;
70385;SDS011;63206;55.650;37.500;2023-02-28T00:29:42;15.00;;;5.05;;
70385;SDS011;63206;55.650;37.500;2023-02-28T00:32:11;13.82;;;4.57;;
70385;SDS011;63206;55.650;37.500;2023-02-28T00:34:40;14.00;;;4.80;;
70385;SDS011;63206;55.650;37.500;2023-02-28T00:37:08;18.00;;;5.22;;
70385;SDS011;63206;55.650;37.500;2023-02-28T00:39:40;16.20;;;4.70;;
70385;SDS011;63206;55.650;37.500;2023-02-28T00:42:08;15.65;;;5.30;;
70385;SDS011;63206;55.650;37.500;2023-02-28T00:44:34;14.88;;;5.22;;
70385;SDS011;63206;55.650;37.500;2023-02-28T00:47:03;15.20;;;5.35;;
70385;SDS011;63206;55.650;37.500;2023-02-28T00:49:29;14.60;;;4.82;;
70385;SDS011;63206;55.650;37.500;2023-02-28T00:51:58;15.05;;;5.43;;
70385;SDS011;63206;55.650;37.500;2023-02-28T00:54:31;15.80;;;4.93;;
70385;SDS011;63206;55.650;37.500;2023-02-28T00:57:00;14.70;;;5.05;;
70385;SDS011;63206;55.650;37.500;2023-02-28T00:59:28;13.75;;;4.63;;
70385;SDS011;63206;55.650;37.500;2023-02-28T01:01:54;11.93;;;4.35;;
70385;SDS011;63206;55.650;37.500;2023-02-28T01:04:23;12.18;;;4.57;;
70385;SDS011;63206;55.650;37.500;2023-02-28T01:06:49;12.95;;;4.55;;
70385;SDS011;63206;55.650;37.500;2023-02-28T01:09:15;11.30;;;4.13;;
70385;SDS011;63206;55.650;37.500;2023-02-28T01:11:53;14.00;;;4.70;;
70385;SDS011;63206;55.650;37.500;2023-02-28T01:14:22;12.90;;;4.75;;
70385;SDS011;63206;55.650;37.500;2023-02-28T01:16:56;14.07;;;4.97;;
70385;SDS011;63206;55.650;37.500;2023-02-28T01:19:27;13.25;;;4.38;;
70385;SDS011;63206;55.650;37.500;2023-02-28T01:21:55;12.23;;;4.25;;
70385;SDS011;63206;55.650;37.500;2023-02-28T01:24:24;12.02;;;4.38;;
70385;SDS011;63206;55.650;37.500;2023-02-28T01:26:56;13.75;;;5.25;;
70385;SDS011;63206;55.650;37.500;2023-02-28T01:29:22;11.73;;;4.30;;
70385;SDS011;63206;55.650;37.500;2023-02-28T01:31:52;11.38;;;4.22;;
70385;SDS011;63206;55.650;37.500;2023-02-28T01:34:21;12.23;;;4.60;;
70385;SDS011;63206;55.650;37.500;2023-02-28T01:36:47;11.73;;;3.97;;
70385;SDS011;63206;55.650;37.500;2023-02-28T01:39:13;11.93;;;4.43;;
70385;SDS011;63206;55.650;37.500;2023-02-28T01:41:39;17.33;;;4.45;;
70385;SDS011;63206;55.650;37.500;2023-02-28T01:46:58;10.60;;;4.35;;
70385;SDS011;63206;55.650;37.500;2023-02-28T01:49:24;12.50;;;4.18;;
70385;SDS011;63206;55.650;37.500;2023-02-28T01:51:55;14.32;;;4.35;;
70385;SDS011;63206;55.650;37.500;2023-02-28T01:54:29;11.23;;;4.40;;
70385;SDS011;63206;55.650;37.500;2023-02-28T01:57:02;11.43;;;3.83;;
70385;SDS011;63206;55.650;37.500;2023-02-28T01:59:54;9.43;;;2.92;;
70385;SDS011;63206;55.650;37.500;2023-02-28T02:02:24;12.23;;;3.72;;
70385;SDS011;63206;55.650;37.500;2023-02-28T02:08:03;11.75;;;4.10;;
70385;SDS011;63206;55.650;37.500;2023-02-28T02:10:36;13.57;;;3.80;;
70385;SDS011;63206;55.650;37.500;2023-02-28T02:16:10;8.07;;;3.10;;
70385;SDS011;63206;55.650;37.500;2023-02-28T02:40:27;11.70;;;3.90;;
70385;SDS011;63206;55.650;37.500;2023-02-28T02:43:02;13.55;;;4.40;;
70385;SDS011;63206;55.650;37.500;2023-02-28T02:45:50;11.85;;;3.50;;
70385;SDS011;63206;55.650;37.500;2023-02-28T02:48:23;11.23;;;3.83;;
70385;SDS011;63206;55.650;37.500;2023-02-28T02:50:55;10.25;;;3.65;;
70385;SDS011;63206;55.650;37.500;2023-02-28T02:53:27;10.07;;;3.28;;
70385;SDS011;63206;55.650;37.500;2023-02-28T02:56:00;12.07;;;3.80;;
70385;SDS011;63206;55.650;37.500;2023-02-28T02:58:35;11.20;;;3.67;;
70385;SDS011;63206;55.650;37.500;2023-02-28T03:01:08;7.65;;;2.83;;
70385;SDS011;63206;55.650;37.500;2023-02-28T03:03:36;12.45;;;4.10;;
70385;SDS011;63206;55.650;37.500;2023-02-28T03:06:05;9.93;;;3.72;;
70385;SDS011;63206;55.650;37.500;2023-02-28T03:08:35;9.50;;;3.33;;
70385;SDS011;63206;55.650;37.500;2023-02-28T03:11:02;10.93;;;3.67;;
70385;SDS011;63206;55.650;37.500;2023-02-28T03:23:39;10.13;;;3.45;;
70385;SDS011;63206;55.650;37.500;2023-02-28T03:26:19;9.10;;;3.30;;
70385;SDS011;63206;55.650;37.500;2023-02-28T03:28:51;9.73;;;3.50;;
70385;SDS011;63206;55.650;37.500;2023-02-28T03:31:20;11.82;;;3.85;;
70385;SDS011;63206;55.650;37.500;2023-02-28T03:33:51;8.10;;;3.30;;
70385;SDS011;63206;55.650;37.500;2023-02-28T03:36:30;11.68;;;4.00;;
70385;SDS011;63206;55.650;37.500;2023-02-28T03:39:02;11.13;;;3.53;;
70385;SDS011;63206;55.650;37.500;2023-02-28T03:41:31;11.57;;;3.65;;
70385;SDS011;63206;55.650;37.500;2023-02-28T03:44:00;11.27;;;3.50;;
70385;SDS011;63206;55.650;37.500;2023-02-28T03:46:38;8.77;;;3.30;;
70385;SDS011;63206;55.650;37.500;2023-02-28T03:49:31;11.25;;;3.80;;
70385;SDS011;63206;55.650;37.500;2023-02-28T03:51:58;11.10;;;4.15;;
70385;SDS011;63206;55.650;37.500;2023-02-28T03:54:48;10.60;;;3.53;;
70385;SDS011;63206;55.650;37.500;2023-02-28T04:00:06;9.43;;;3.50;;
70385;SDS011;63206;55.650;37.500;2023-02-28T04:02:40;9.93;;;3.10;;
70385;SDS011;63206;55.650;37.500;2023-02-28T04:05:12;9.75;;;3.45;;
70385;SDS011;63206;55.650;37.500;2023-02-28T04:07:43;7.28;;;3.03;;
70385;SDS011;63206;55.650;37.500;2023-02-28T04:10:10;6.50;;;2.75;;
70385;SDS011;63206;55.650;37.500;2023-02-28T04:12:41;12.57;;;4.00;;
70385;SDS011;63206;55.650;37.500;2023-02-28T04:15:10;7.25;;;2.97;;
70385;SDS011;63206;55.650;37.500;2023-02-28T04:17:39;8.73;;;3.42;;
70385;SDS011;63206;55.650;37.500;2023-02-28T04:20:08;9.70;;;3.10;;
70385;SDS011;63206;55.650;37.500;2023-02-28T04:22:37;9.02;;;2.90;;
70385;SDS011;63206;55.650;37.500;2023-02-28T04:25:03;10.50;;;3.08;;
70385;SDS011;63206;55.650;37.500;2023-02-28T04:27:29;10.23;;;3.20;;
70385;SDS011;63206;55.650;37.500;2023-02-28T04:29:58;9.48;;;3.67;;
70385;SDS011;63206;55.650;37.500;2023-02-28T04:32:27;9.15;;;3.25;;
70385;SDS011;63206;55.650;37.500;2023-02-28T04:34:56;9.93;;;2.90;;
70385;SDS011;63206;55.650;37.500;2023-02-28T04:37:22;10.05;;;3.28;;
70385;SDS011;63206;55.650;37.500;2023-02-28T04:39:56;10.13;;;3.80;;
70385;SDS011;63206;55.650;37.500;2023-02-28T04:42:27;8.13;;;3.05;;
70385;SDS011;63206;55.650;37.500;2023-02-28T04:47:31;8.38;;;3.17;;
70385;SDS011;63206;55.650;37.500;2023-02-28T04:50:00;6.60;;;2.38;;
70385;SDS011;63206;55.650;37.500;2023-02-28T04:52:32;8.85;;;2.95;;
70385;SDS011;63206;55.650;37.500;2023-02-28T04:55:03;9.32;;;3.38;;
70385;SDS011;63206;55.650;37.500;2023-02-28T04:57:29;11.90;;;3.50;;
70385;SDS011;63206;55.650;37.500;2023-02-28T05:00:03;8.43;;;3.28;;
70385;SDS011;63206;55.650;37.500;2023-02-28T05:02:35;11.32;;;3.88;;
70385;SDS011;63206;55.650;37.500;2023-02-28T05:05:01;9.60;;;3.47;;
70385;SDS011;63206;55.650;37.500;2023-02-28T05:07:27;11.27;;;3.78;;
70385;SDS011;63206;55.650;37.500;2023-02-28T05:09:53;7.97;;;2.92;;
70385;SDS011;63206;55.650;37.500;2023-02-28T05:12:21;9.10;;;2.65;;
70385;SDS011;63206;55.650;37.500;2023-02-28T05:14:49;8.43;;;3.30;;
70385;SDS011;63206;55.650;37.500;2023-02-28T05:17:18;7.57;;;2.97;;
70385;SDS011;63206;55.650;37.500;2023-02-28T05:19:47;8.82;;;3.35;;
70385;SDS011;63206;55.650;37.500;2023-02-28T05:22:19;10.35;;;2.90;;
70385;SDS011;63206;55.650;37.500;2023-02-28T05:24:45;11.52;;;3.60;;
70385;SDS011;63206;55.650;37.500;2023-02-28T05:27:11;7.05;;;2.92;;
70385;SDS011;63206;55.650;37.500;2023-02-28T05:29:39;7.82;;;3.28;;
70385;SDS011;63206;55.650;37.500;2023-02-28T05:32:09;8.68;;;2.55;;
70385;SDS011;63206;55.650;37.500;2023-02-28T05:34:39;8.77;;;2.95;;
70385;SDS011;63206;55.650;37.500;2023-02-28T05:37:05;8.98;;;3.20;;
70385;SDS011;63206;55.650;37.500;2023-02-28T05:39:33;9.75;;;3.42;;
70385;SDS011;63206;55.650;37.500;2023-02-28T05:42:02;8.07;;;3.05;;
70385;SDS011;63206;55.650;37.500;2023-02-28T05:44:31;9.38;;;3.20;;
70385;SDS011;63206;55.650;37.500;2023-02-28T05:47:00;9.95;;;2.90;;
70385;SDS011;63206;55.650;37.500;2023-02-28T05:49:28;10.48;;;3.65;;
70385;SDS011;63206;55.650;37.500;2023-02-28T05:52:00;6.05;;;3.00;;
70385;SDS011;63206;55.650;37.500;2023-02-28T05:54:29;10.02;;;3.30;;
70385;SDS011;63206;55.650;37.500;2023-02-28T05:56:55;7.50;;;2.65;;
70385;SDS011;63206;55.650;37.500;2023-02-28T05:59:24;6.78;;;2.55;;
70385;SDS011;63206;55.650;37.500;2023-02-28T06:01:55;7.75;;;2.80;;
70385;SDS011;63206;55.650;37.500;2023-02-28T06:04:24;9.50;;;3.33;;
70385;SDS011;63206;55.650;37.500;2023-02-28T06:06:50;8.73;;;3.15;;
70385;SDS011;63206;55.650;37.500;2023-02-28T06:09:18;9.73;;;3.03;;
70385;SDS011;63206;55.650;37.500;2023-02-28T06:11:51;8.05;;;3.00;;
70385;SDS011;63206;55.650;37.500;2023-02-28T06:14:19;7.82;;;2.80;;
70385;SDS011;63206;55.650;37.500;2023-02-28T06:17:00;8.13;;;3.10;;
70385;SDS011;63206;55.650;37.500;2023-02-28T06:19:31;7.82;;;2.67;;
70385;SDS011;63206;55.650;37.500;2023-02-28T06:22:03;7.25;;;2.85;;
70385;SDS011;63206;55.650;37.500;2023-02-28T06:24:30;8.35;;;2.97;;
70385;SDS011;63206;55.650;37.500;2023-02-28T06:27:01;6.68;;;2.70;;
70385;SDS011;63206;55.650;37.500;2023-02-28T06:29:34;5.28;;;2.28;;
70385;SDS011;63206;55.650;37.500;2023-02-28T06:32:05;9.00;;;3.10;;
70385;SDS011;63206;55.650;37.500;2023-02-28T06:34:31;8.93;;;3.33;;
70385;SDS011;63206;55.650;37.500;2023-02-28T06:37:01;7.72;;;2.80;;
70385;SDS011;63206;55.650;37.500;2023-02-28T06:39:30;10.00;;;2.97;;
70385;SDS011;63206;55.650;37.500;2023-02-28T06:41:59;7.03;;;2.50;;
70385;SDS011;63206;55.650;37.500;2023-02-28T06:44:31;10.60;;;3.13;;
70385;SDS011;63206;55.650;37.500;2023-02-28T06:47:06;9.43;;;3.00;;
70385;SDS011;63206;55.650;37.500;2023-02-28T06:49:44;7.50;;;3.20;;
70385;SDS011;63206;55.650;37.500;2023-02-28T06:52:15;8.80;;;2.83;;
70385;SDS011;63206;55.650;37.500;2023-02-28T06:54:41;6.57;;;2.80;;
70385;SDS011;63206;55.650;37.500;2023-02-28T06:57:15;8.35;;;2.97;;
70385;SDS011;63206;55.650;37.500;2023-02-28T06:59:41;7.55;;;2.70;;
70385;SDS011;63206;55.650;37.500;2023-02-28T07:02:10;9.55;;;2.60;;
70385;SDS011;63206;55.650;37.500;2023-02-28T07:04:36;8.50;;;2.70;;
70385;SDS011;63206;55.650;37.500;2023-02-28T07:07:05;8.00;;;2.72;;
70385;SDS011;63206;55.650;37.500;2023-02-28T07:09:34;7.47;;;2.30;;
70385;SDS011;63206;55.650;37.500;2023-02-28T07:12:05;7.65;;;2.90;;
70385;SDS011;63206;55.650;37.500;2023-02-28T07:14:32;7.70;;;2.95;;
70385;SDS011;63206;55.650;37.500;2023-02-28T07:17:00;8.75;;;3.20;;
70385;SDS011;63206;55.650;37.500;2023-02-28T07:19:35;7.82;;;2.97;;
70385;SDS011;63206;55.650;37.500;2023-02-28T07:22:04;9.18;;;3.17;;
70385;SDS011;63206;55.650;37.500;2023-02-28T07:24:30;8.52;;;2.80;;
70385;SDS011;63206;55.650;37.500;2023-02-28T07:26:58;8.73;;;2.90;;
70385;SDS011;63206;55.650;37.500;2023-02-28T07:29:25;7.53;;;2.85;;
70385;SDS011;63206;55.650;37.500;2023-02-28T07:34:31;8.18;;;2.80;;
70385;SDS011;63206;55.650;37.500;2023-02-28T07:37:00;8.80;;;3.05;;
70385;SDS011;63206;55.650;37.500;2023-02-28T07:39:37;7.45;;;2.50;;
70385;SDS011;63206;55.650;37.500;2023-02-28T07:42:06;10.05;;;2.58;;
70385;SDS011;63206;55.650;37.500;2023-02-28T07:44:39;8.80;;;3.13;;
70385;SDS011;63206;55.650;37.500;2023-02-28T07:47:17;8.55;;;3.03;;
70385;SDS011;63206;55.650;37.500;2023-02-28T07:49:46;7.05;;;2.50;;
70385;SDS011;63206;55.650;37.500;2023-02-28T07:52:12;8.73;;;3.28;;
70385;SDS011;63206;55.650;37.500;2023-02-28T07:54:41;7.15;;;2.60;;
70385;SDS011;63206;55.650;37.500;2023-02-28T07:57:09;6.95;;;2.40;;
70385;SDS011;63206;55.650;37.500;2023-02-28T07:59:40;7.53;;;2.72;;
70385;SDS011;63206;55.650;37.500;2023-02-28T08:02:12;8.15;;;2.60;;
70385;SDS011;63206;55.650;37.500;2023-02-28T08:04:46;7.95;;;2.92;;
70385;SDS011;63206;55.650;37.500;2023-02-28T08:07:17;8.10;;;3.05;;
70385;SDS011;63206;55.650;37.500;2023-02-28T08:09:43;7.38;;;2.88;;
70385;SDS011;63206;55.650;37.500;2023-02-28T08:12:14;7.35;;;2.92;;
70385;SDS011;63206;55.650;37.500;2023-02-28T08:14:43;8.65;;;3.08;;
70385;SDS011;63206;55.650;37.500;2023-02-28T08:17:15;8.75;;;2.97;;
70385;SDS011;63206;55.650;37.500;2023-02-28T08:19:50;9.60;;;3.20;;
70385;SDS011;63206;55.650;37.500;2023-02-28T08:22:21;8.18;;;2.72;;
70385;SDS011;63206;55.650;37.500;2023-02-28T08:24:49;8.35;;;2.83;;
70385;SDS011;63206;55.650;37.500;2023-02-28T08:27:20;8.38;;;3.30;;
70385;SDS011;63206;55.650;37.500;2023-02-28T08:29:49;8.63;;;2.75;;
70385;SDS011;63206;55.650;37.500;2023-02-28T08:32:18;8.48;;;3.38;;
70385;SDS011;63206;55.650;37.500;2023-02-28T08:34:50;5.57;;;2.15;;
70385;SDS011;63206;55.650;37.500;2023-02-28T08:37:21;7.25;;;2.40;;
70385;SDS011;63206;55.650;37.500;2023-02-28T08:39:51;9.40;;;2.97;;
70385;SDS011;63206;55.650;37.500;2023-02-28T08:42:17;10.30;;;2.78;;
70385;SDS011;63206;55.650;37.500;2023-02-28T08:44:45;9.23;;;3.03;;
70385;SDS011;63206;55.650;37.500;2023-02-28T08:47:14;10.23;;;3.25;;
70385;SDS011;63206;55.650;37.500;2023-02-28T08:49:43;8.85;;;3.00;;
70385;SDS011;63206;55.650;37.500;2023-02-28T08:52:09;9.38;;;3.08;;
70385;SDS011;63206;55.650;37.500;2023-02-28T08:54:37;9.20;;;2.85;;
70385;SDS011;63206;55.650;37.500;2023-02-28T08:57:08;9.15;;;3.45;;
70385;SDS011;63206;55.650;37.500;2023-02-28T08:59:39;9.40;;;3.00;;
70385;SDS011;63206;55.650;37.500;2023-02-28T09:02:13;7.80;;;2.72;;
70385;SDS011;63206;55.650;37.500;2023-02-28T09:04:42;9.10;;;2.92;;
70385;SDS011;63206;55.650;37.500;2023-02-28T09:07:15;7.50;;;2.45;;
70385;SDS011;63206;55.650;37.500;2023-02-28T09:09:45;8.07;;;2.58;;
70385;SDS011;63206;55.650;37.500;2023-02-28T09:12:23;8.45;;;2.65;;
70385;SDS011;63206;55.650;37.500;2023-02-28T09:14:58;9.40;;;3.30;;
70385;SDS011;63206;55.650;37.500;2023-02-28T09:17:32;6.63;;;2.50;;
70385;SDS011;63206;55.650;37.500;2023-02-28T09:20:01;6.88;;;2.70;;
70385;SDS011;63206;55.650;37.500;2023-02-28T09:22:30;13.90;;;3.47;;
70385;SDS011;63206;55.650;37.500;2023-02-28T09:25:04;10.75;;;3.40;;
70385;SDS011;63206;55.650;37.500;2023-02-28T09:27:33;9.55;;;2.90;;
70385;SDS011;63206;55.650;37.500;2023-02-28T09:30:01;8.30;;;3.22;;
70385;SDS011;63206;55.650;37.500;2023-02-28T09:32:32;8.98;;;3.55;;
70385;SDS011;63206;55.650;37.500;2023-02-28T09:35:01;10.88;;;3.60;;
70385;SDS011;63206;55.650;37.500;2023-02-28T09:37:30;10.85;;;3.13;;
70385;SDS011;63206;55.650;37.500;2023-02-28T09:40:01;8.18;;;3.00;;
70385;SDS011;63206;55.650;37.500;2023-02-28T09:42:31;9.38;;;2.85;;
70385;SDS011;63206;55.650;37.500;2023-02-28T09:45:02;7.95;;;2.33;;
70385;SDS011;63206;55.650;37.500;2023-02-28T09:47:38;9.07;;;3.05;;
70385;SDS011;63206;55.650;37.500;2023-02-28T09:52:56;9.60;;;3.30;;
70385;SDS011;63206;55.650;37.500;2023-02-28T09:55:39;9.68;;;3.10;;
70385;SDS011;63206;55.650;37.500;2023-02-28T10:01:09;8.88;;;3.08;;
70385;SDS011;63206;55.650;37.500;2023-02-28T10:03:39;9.30;;;3.15;;
70385;SDS011;63206;55.650;37.500;2023-02-28T10:06:23;10.52;;;3.97;;
70385;SDS011;63206;55.650;37.500;2023-02-28T10:09:04;13.02;;;3.72;;
70385;SDS011;63206;55.650;37.500;2023-02-28T10:11:42;10.23;;;3.50;;
70385;SDS011;63206;55.650;37.500;2023-02-28T10:14:24;10.55;;;3.70;;
70385;SDS011;63206;55.650;37.500;2023-02-28T10:24:48;10.13;;;3.20;;
70385;SDS011;63206;55.650;37.500;2023-02-28T10:27:28;10.25;;;3.60;;
70385;SDS011;63206;55.650;37.500;2023-02-28T10:30:02;7.95;;;2.83;;
70385;SDS011;63206;55.650;37.500;2023-02-28T10:32:36;8.63;;;3.42;;
70385;SDS011;63206;55.650;37.500;2023-02-28T10:37:44;10.27;;;3.05;;
70385;SDS011;63206;55.650;37.500;2023-02-28T10:42:59;9.88;;;2.92;;
70385;SDS011;63206;55.650;37.500;2023-02-28T10:45:35;9.13;;;3.10;;
70385;SDS011;63206;55.650;37.500;2023-02-28T10:48:27;10.82;;;3.05;;
70385;SDS011;63206;55.650;37.500;2023-02-28T10:50:54;8.60;;;3.15;;
70385;SDS011;63206;55.650;37.500;2023-02-28T10:53:30;8.32;;;2.92;;
70385;SDS011;63206;55.650;37.500;2023-02-28T10:56:02;10.65;;;3.83;;
70385;SDS011;63206;55.650;37.500;2023-02-28T10:58:53;7.10;;;3.03;;
70385;SDS011;63206;55.650;37.500;2023-02-28T11:01:46;10.65;;;3.47;;
70385;SDS011;63206;55.650;37.500;2023-02-28T11:06:47;8.63;;;3.13;;
70385;SDS011;63206;55.650;37.500;2023-02-28T11:09:30;8.35;;;3.13;;
70385;SDS011;63206;55.650;37.500;2023-02-28T11:12:00;8.05;;;3.15;;
70385;SDS011;63206;55.650;37.500;2023-02-28T11:14:34;10.93;;;3.53;;
70385;SDS011;63206;55.650;37.500;2023-02-28T11:17:22;9.35;;;3.25;;
70385;SDS011;63206;55.650;37.500;2023-02-28T11:20:03;10.15;;;3.60;;
70385;SDS011;63206;55.650;37.500;2023-02-28T11:22:31;10.07;;;3.78;;
70385;SDS011;63206;55.650;37.500;2023-02-28T11:25:01;10.40;;;3.75;;
70385;SDS011;63206;55.650;37.500;2023-02-28T11:27:40;9.90;;;3.83;;
70385;SDS011;63206;55.650;37.500;2023-02-28T11:35:59;11.40;;;3.45;;
70385;SDS011;63206;55.650;37.500;2023-02-28T11:38:28;12.70;;;3.85;;
70385;SDS011;63206;55.650;37.500;2023-02-28T11:43:42;9.55;;;3.70;;
70385;SDS011;63206;55.650;37.500;2023-02-28T11:46:20;11.23;;;4.03;;
70385;SDS011;63206;55.650;37.500;2023-02-28T11:49:02;11.63;;;3.47;;
70385;SDS011;63206;55.650;37.500;2023-02-28T11:51:47;7.70;;;3.33;;
70385;SDS011;63206;55.650;37.500;2023-02-28T12:00:08;9.50;;;3.78;;
70385;SDS011;63206;55.650;37.500;2023-02-28T12:11:14;10.55;;;3.70;;
70385;SDS011;63206;55.650;37.500;2023-02-28T12:21:55;10.93;;;3.83;;
70385;SDS011;63206;55.650;37.500;2023-02-28T12:27:24;10.80;;;4.47;;
70385;SDS011;63206;55.650;37.500;2023-02-28T12:29:59;13.68;;;4.03;;
70385;SDS011;63206;55.650;37.500;2023-02-28T12:32:39;10.82;;;3.92;;
70385;SDS011;63206;55.650;37.500;2023-02-28T12:35:16;10.07;;;3.90;;
70385;SDS011;63206;55.650;37.500;2023-02-28T12:41:00;11.00;;;4.18;;
70385;SDS011;63206;55.650;37.500;2023-02-28T12:43:37;9.40;;;3.45;;
70385;SDS011;63206;55.650;37.500;2023-02-28T12:46:14;11.73;;;3.75;;
70385;SDS011;63206;55.650;37.500;2023-02-28T12:48:52;8.23;;;3.45;;
70385;SDS011;63206;55.650;37.500;2023-02-28T12:51:29;10.32;;;3.55;;
70385;SDS011;63206;55.650;37.500;2023-02-28T12:54:04;10.32;;;3.78;;
70385;SDS011;63206;55.650;37.500;2023-02-28T13:09:40;10.82;;;3.80;;
70385;SDS011;63206;55.650;37.500;2023-02-28T13:12:15;9.52;;;4.10;;
70385;SDS011;63206;55.650;37.500;2023-02-28T13:14:49;10.02;;;4.18;;
70385;SDS011;63206;55.650;37.500;2023-02-28T13:17:21;9.70;;;3.95;;
70385;SDS011;63206;55.650;37.500;2023-02-28T13:22:44;9.95;;;3.75;;
70385;SDS011;63206;55.650;37.500;2023-02-28T13:27:50;8.30;;;3.67;;
70385;SDS011;63206;55.650;37.500;2023-02-28T13:33:19;9.18;;;3.40;;
70385;SDS011;63206;55.650;37.500;2023-02-28T13:38:46;9.02;;;3.63;;
70385;SDS011;63206;55.650;37.500;2023-02-28T13:46:33;7.85;;;3.25;;
70385;SDS011;63206;55.650;37.500;2023-02-28T13:54:48;9.57;;;3.85;;
70385;SDS011;63206;55.650;37.500;2023-02-28T13:59:57;8.10;;;3.10;;
70385;SDS011;63206;55.650;37.500;2023-02-28T14:07:45;7.15;;;3.08;;
70385;SDS011;63206;55.650;37.500;2023-02-28T14:10:20;8.65;;;3.42;;
70385;SDS011;63206;55.650;37.500;2023-02-28T14:12:54;10.40;;;3.60;;
70385;SDS011;63206;55.650;37.500;2023-02-28T14:15:39;9.18;;;3.50;;
70385;SDS011;63206;55.650;37.500;2023-02-28T14:18:19;8.57;;;3.83;;
70385;SDS011;63206;55.650;37.500;2023-02-28T14:20:54;9.20;;;3.40;;
70385;SDS011;63206;55.650;37.500;2023-02-28T14:31:15;11.45;;;3.88;;
70385;SDS011;63206;55.650;37.500;2023-02-28T14:34:03;9.25;;;3.17;;
70385;SDS011;63206;55.650;37.500;2023-02-28T14:36:37;8.15;;;3.28;;
70385;SDS011;63206;55.650;37.500;2023-02-28T14:39:07;8.25;;;3.63;;
70385;SDS011;63206;55.650;37.500;2023-02-28T14:41:43;11.63;;;4.03;;
70385;SDS011;63206;55.650;37.500;2023-02-28T14:44:30;9.45;;;3.35;;
70385;SDS011;63206;55.650;37.500;2023-02-28T14:46:57;11.18;;;3.80;;
70385;SDS011;63206;55.650;37.500;2023-02-28T14:49:34;8.73;;;3.70;;
70385;SDS011;63206;55.650;37.500;2023-02-28T14:52:12;11.38;;;3.92;;
70385;SDS011;63206;55.650;37.500;2023-02-28T14:54:40;8.57;;;3.45;;
70385;SDS011;63206;55.650;37.500;2023-02-28T14:57:29;8.52;;;3.42;;
70385;SDS011;63206;55.650;37.500;2023-02-28T15:00:04;9.13;;;4.13;;
70385;SDS011;63206;55.650;37.500;2023-02-28T15:02:36;9.65;;;3.47;;
70385;SDS011;63206;55.650;37.500;2023-02-28T15:05:23;9.50;;;3.45;;
70385;SDS011;63206;55.650;37.500;2023-02-28T15:08:00;8.82;;;3.33;;
70385;SDS011;63206;55.650;37.500;2023-02-28T15:10:29;9.70;;;3.40;;
70385;SDS011;63206;55.650;37.500;2023-02-28T15:12:57;8.45;;;3.70;;
70385;SDS011;63206;55.650;37.500;2023-02-28T15:18:02;8.38;;;3.83;;
70385;SDS011;63206;55.650;37.500;2023-02-28T15:20:29;8.40;;;3.03;;
70385;SDS011;63206;55.650;37.500;2023-02-28T15:22:55;8.32;;;2.85;;
70385;SDS011;63206;55.650;37.500;2023-02-28T15:25:21;9.27;;;3.50;;
70385;SDS011;63206;55.650;37.500;2023-02-28T15:27:53;12.65;;;3.42;;
70385;SDS011;63206;55.650;37.500;2023-02-28T15:35:37;10.15;;;3.65;;
70385;SDS011;63206;55.650;37.500;2023-02-28T15:40:45;7.10;;;2.97;;
70385;SDS011;63206;55.650;37.500;2023-02-28T15:43:28;8.95;;;3.33;;
70385;SDS011;63206;55.650;37.500;2023-02-28T15:46:03;8.18;;;2.83;;
70385;SDS011;63206;55.650;37.500;2023-02-28T15:48:37;7.35;;;2.97;;
70385;SDS011;63206;55.650;37.500;2023-02-28T15:53:39;9.75;;;3.30;;
70385;SDS011;63206;55.650;37.500;2023-02-28T15:56:13;8.52;;;3.30;;
70385;SDS011;63206;55.650;37.500;2023-02-28T15:58:46;7.82;;;2.80;;
70385;SDS011;63206;55.650;37.500;2023-02-28T16:03:45;7.20;;;2.97;;
70385;SDS011;63206;55.650;37.500;2023-02-28T16:08:42;7.63;;;2.80;;
70385;SDS011;63206;55.650;37.500;2023-02-28T16:11:14;8.45;;;3.28;;
70385;SDS011;63206;55.650;37.500;2023-02-28T16:13:48;8.25;;;2.92;;
70385;SDS011;63206;55.650;37.500;2023-02-28T16:16:17;8.80;;;3.20;;
70385;SDS011;63206;55.650;37.500;2023-02-28T16:18:51;7.80;;;2.88;;
70385;SDS011;63206;55.650;37.500;2023-02-28T16:21:24;8.05;;;3.20;;
70385;SDS011;63206;55.650;37.500;2023-02-28T16:23:56;7.95;;;3.10;;
70385;SDS011;63206;55.650;37.500;2023-02-28T16:26:22;7.85;;;2.83;;
70385;SDS011;63206;55.650;37.500;2023-02-28T16:28:52;8.43;;;3.40;;
70385;SDS011;63206;55.650;37.500;2023-02-28T16:31:21;7.32;;;2.90;;
70385;SDS011;63206;55.650;37.500;2023-02-28T16:33:49;6.25;;;2.72;;
70385;SDS011;63206;55.650;37.500;2023-02-28T16:36:20;7.50;;;3.00;;
70385;SDS011;63206;55.650;37.500;2023-02-28T16:38:49;7.60;;;2.58;;
70385;SDS011;63206;55.650;37.500;2023-02-28T16:41:21;7.05;;;2.53;;
70385;SDS011;63206;55.650;37.500;2023-02-28T16:43:48;7.88;;;3.13;;
70385;SDS011;63206;55.650;37.500;2023-02-28T16:46:15;8.77;;;3.00;;
70385;SDS011;63206;55.650;37.500;2023-02-28T16:48:43;8.32;;;3.10;;
70385;SDS011;63206;55.650;37.500;2023-02-28T16:51:15;7.15;;;2.55;;
70385;SDS011;63206;55.650;37.500;2023-02-28T16:53:42;8.02;;;2.70;;
70385;SDS011;63206;55.650;37.500;2023-02-28T16:56:16;6.53;;;2.65;;
70385;SDS011;63206;55.650;37.500;2023-02-28T16:58:42;6.28;;;2.65;;
70385;SDS011;63206;55.650;37.500;2023-02-28T17:01:11;6.13;;;2.90;;
70385;SDS011;63206;55.650;37.500;2023-02-28T17:03:42;8.23;;;3.10;;
70385;SDS011;63206;55.650;37.500;2023-02-28T17:06:19;7.28;;;3.10;;
70385;SDS011;63206;55.650;37.500;2023-02-28T17:08:45;7.05;;;2.75;;
70385;SDS011;63206;55.650;37.500;2023-02-28T17:11:14;9.95;;;3.47;;
70385;SDS011;63206;55.650;37.500;2023-02-28T17:13:43;6.32;;;2.75;;
70385;SDS011;63206;55.650;37.500;2023-02-28T17:18:50;6.97;;;2.58;;
70385;SDS011;63206;55.650;37.500;2023-02-28T17:21:17;6.18;;;2.70;;
70385;SDS011;63206;55.650;37.500;2023-02-28T17:23:43;6.82;;;2.70;;
70385;SDS011;63206;55.650;37.500;2023-02-28T17:26:12;6.45;;;2.40;;
70385;SDS011;63206;55.650;37.500;2023-02-28T17:28:38;6.60;;;2.53;;
70385;SDS011;63206;55.650;37.500;2023-02-28T17:31:07;5.90;;;2.53;;
70385;SDS011;63206;55.650;37.500;2023-02-28T17:33:36;8.20;;;2.50;;
70385;SDS011;63206;55.650;37.500;2023-02-28T17:36:04;4.28;;;1.90;;
70385;SDS011;63206;55.650;37.500;2023-02-28T17:38:34;6.05;;;2.20;;
70385;SDS011;63206;55.650;37.500;2023-02-28T17:41:04;5.10;;;1.80;;
70385;SDS011;63206;55.650;37.500;2023-02-28T17:43:36;4.70;;;2.00;;
70385;SDS011;63206;55.650;37.500;2023-02-28T17:46:26;6.05;;;2.33;;
70385;SDS011;63206;55.650;37.500;2023-02-28T17:48:56;5.47;;;2.22;;
70385;SDS011;63206;55.650;37.500;2023-02-28T17:51:25;4.80;;;1.95;;
70385;SDS011;63206;55.650;37.500;2023-02-28T17:53:51;6.85;;;2.25;;